Terminal Aerodrome Forecast
Issued by NWS Wilmington, OH

Home | Current Version | Previous Version | Text Only | Print | Product List | Glossary On
Versions: 1 2 3 4 5 6 7 8 9 10 11 12 13 14 15 16 17 18 19 20 21 22
000
FTUS41 KILN 231508 AAC
TAFILN
TAF AMD
KILN 231508Z 2315/2412 25010KT P6SM VCTS SCT015 OVC035CB
      TEMPO 2316/2319 4SM -SHRA OVC015
     FM232100 27005KT P6SM VCTS BKN035CB
     FM232300 27006KT P6SM VCSH BKN035
     FM240300 26003KT P6SM SCT035
     FM240800 00000KT 4SM BR FEW035
     FM241000 00000KT 2SM BR FEW035=

USA.gov is the U.S. government's official web portal to all federal, state and local government web resources and services.